sensor_id;sensor_type;location;lat;lon;timestamp;pressure;altitude;pressure_sealevel;temperature;humidity
50702;BME280;36670;50.094;8.496;2023-04-06T00:00:48;100676.28;;;5.03;47.21
50702;BME280;36670;50.094;8.496;2023-04-06T00:03:14;100672.00;;;4.74;47.87
50702;BME280;36670;50.094;8.496;2023-04-06T00:05:39;100667.59;;;4.79;47.84
50702;BME280;36670;50.094;8.496;2023-04-06T00:08:05;100667.06;;;5.24;47.40
50702;BME280;36670;50.094;8.496;2023-04-06T00:10:30;100672.47;;;4.91;48.36
50702;BME280;36670;50.094;8.496;2023-04-06T00:12:55;100667.50;;;4.53;48.55
50702;BME280;36670;50.094;8.496;2023-04-06T00:15:22;100667.66;;;4.93;48.61
50702;BME280;36670;50.094;8.496;2023-04-06T00:17:48;100664.88;;;4.86;48.54
50702;BME280;36670;50.094;8.496;2023-04-06T00:20:13;100668.88;;;4.84;48.73
50702;BME280;36670;50.094;8.496;2023-04-06T00:22:38;100647.69;;;5.06;47.95
50702;BME280;36670;50.094;8.496;2023-04-06T00:25:04;100655.25;;;5.10;47.55
50702;BME280;36670;50.094;8.496;2023-04-06T00:27:30;100655.50;;;5.49;46.97
50702;BME280;36670;50.094;8.496;2023-04-06T00:29:55;100651.91;;;5.69;46.87
50702;BME280;36670;50.094;8.496;2023-04-06T00:32:20;100650.66;;;5.78;45.96
50702;BME280;36670;50.094;8.496;2023-04-06T00:34:46;100647.03;;;5.04;47.15
50702;BME280;36670;50.094;8.496;2023-04-06T00:37:11;100647.25;;;4.95;47.07
50702;BME280;36670;50.094;8.496;2023-04-06T00:39:37;100646.34;;;4.88;47.95
50702;BME280;36670;50.094;8.496;2023-04-06T00:42:09;100637.13;;;4.96;47.41
50702;BME280;36670;50.094;8.496;2023-04-06T00:44:35;100631.88;;;5.15;47.31
50702;BME280;36670;50.094;8.496;2023-04-06T00:47:01;100631.06;;;5.21;46.89
50702;BME280;36670;50.094;8.496;2023-04-06T00:49:26;100624.66;;;4.80;47.58
50702;BME280;36670;50.094;8.496;2023-04-06T00:51:52;100626.44;;;4.39;48.95
50702;BME280;36670;50.094;8.496;2023-04-06T00:54:18;100630.03;;;3.98;49.71
50702;BME280;36670;50.094;8.496;2023-04-06T00:56:43;100626.00;;;3.94;49.66
50702;BME280;36670;50.094;8.496;2023-04-06T00:59:09;100623.63;;;4.19;49.17
50702;BME280;36670;50.094;8.496;2023-04-06T01:01:34;100621.06;;;4.59;48.22
50702;BME280;36670;50.094;8.496;2023-04-06T01:04:00;100620.72;;;4.96;47.91
50702;BME280;36670;50.094;8.496;2023-04-06T01:06:28;100613.34;;;4.83;48.28
50702;BME280;36670;50.094;8.496;2023-04-06T01:08:59;100620.03;;;4.19;49.47
50702;BME280;36670;50.094;8.496;2023-04-06T01:11:24;100618.19;;;4.33;49.00
50702;BME280;36670;50.094;8.496;2023-04-06T01:13:51;100615.50;;;4.39;48.73
50702;BME280;36670;50.094;8.496;2023-04-06T01:16:19;100617.50;;;4.72;47.89
50702;BME280;36670;50.094;8.496;2023-04-06T01:18:45;100619.78;;;4.69;48.20
50702;BME280;36670;50.094;8.496;2023-04-06T01:21:10;100610.84;;;5.08;47.34
50702;BME280;36670;50.094;8.496;2023-04-06T01:23:42;100622.41;;;5.10;47.26
50702;BME280;36670;50.094;8.496;2023-04-06T01:26:08;100613.75;;;4.87;48.46
50702;BME280;36670;50.094;8.496;2023-04-06T01:28:33;100616.53;;;5.27;47.11
50702;BME280;36670;50.094;8.496;2023-04-06T01:30:59;100609.19;;;5.27;47.27
50702;BME280;36670;50.094;8.496;2023-04-06T01:33:24;100613.81;;;5.13;47.64
50702;BME280;36670;50.094;8.496;2023-04-06T01:35:50;100603.00;;;4.78;48.01
50702;BME280;36670;50.094;8.496;2023-04-06T01:38:15;100607.81;;;4.70;48.17
50702;BME280;36670;50.094;8.496;2023-04-06T01:40:41;100599.97;;;4.53;48.81
50702;BME280;36670;50.094;8.496;2023-04-06T01:43:06;100606.25;;;4.40;48.85
50702;BME280;36670;50.094;8.496;2023-04-06T01:45:32;100607.84;;;4.83;47.75
50702;BME280;36670;50.094;8.496;2023-04-06T01:47:57;100593.09;;;4.84;47.96
50702;BME280;36670;50.094;8.496;2023-04-06T01:50:22;100601.56;;;5.03;47.92
50702;BME280;36670;50.094;8.496;2023-04-06T01:52:48;100598.84;;;5.23;47.49
50702;BME280;36670;50.094;8.496;2023-04-06T01:55:13;100604.50;;;5.15;47.35
50702;BME280;36670;50.094;8.496;2023-04-06T01:57:38;100599.41;;;4.71;47.91
50702;BME280;36670;50.094;8.496;2023-04-06T02:00:05;100599.84;;;4.88;48.03
50702;BME280;36670;50.094;8.496;2023-04-06T02:02:30;100610.44;;;5.18;47.00
50702;BME280;36670;50.094;8.496;2023-04-06T02:04:56;100604.75;;;5.33;47.43
50702;BME280;36670;50.094;8.496;2023-04-06T02:07:21;100603.91;;;5.39;47.27
50702;BME280;36670;50.094;8.496;2023-04-06T02:09:47;100602.00;;;5.26;47.52
50702;BME280;36670;50.094;8.496;2023-04-06T02:12:12;100609.94;;;4.68;47.92
50702;BME280;36670;50.094;8.496;2023-04-06T02:14:37;100609.81;;;4.41;48.70
50702;BME280;36670;50.094;8.496;2023-04-06T02:17:03;100611.06;;;3.90;49.92
50702;BME280;36670;50.094;8.496;2023-04-06T02:19:28;100613.03;;;3.68;50.54
50702;BME280;36670;50.094;8.496;2023-04-06T02:21:54;100600.28;;;3.82;50.67
50702;BME280;36670;50.094;8.496;2023-04-06T02:24:19;100602.09;;;3.68;50.40
50702;BME280;36670;50.094;8.496;2023-04-06T02:26:44;100605.59;;;3.97;50.02
50702;BME280;36670;50.094;8.496;2023-04-06T02:29:10;100603.13;;;4.50;49.08
50702;BME280;36670;50.094;8.496;2023-04-06T02:31:35;100592.28;;;4.84;48.52
50702;BME280;36670;50.094;8.496;2023-04-06T02:34:01;100596.56;;;4.38;49.44
50702;BME280;36670;50.094;8.496;2023-04-06T02:36:26;100596.97;;;4.35;50.33
50702;BME280;36670;50.094;8.496;2023-04-06T02:38:51;100585.66;;;3.96;50.19
50702;BME280;36670;50.094;8.496;2023-04-06T02:41:17;100592.31;;;3.80;50.72
50702;BME280;36670;50.094;8.496;2023-04-06T02:43:42;100599.44;;;4.23;50.17
50702;BME280;36670;50.094;8.496;2023-04-06T02:46:07;100588.50;;;3.74;50.75
50702;BME280;36670;50.094;8.496;2023-04-06T02:48:33;100590.25;;;3.54;51.44
50702;BME280;36670;50.094;8.496;2023-04-06T02:51:01;100595.72;;;3.89;51.01
50702;BME280;36670;50.094;8.496;2023-04-06T02:53:26;100585.19;;;3.86;50.89
50702;BME280;36670;50.094;8.496;2023-04-06T02:55:52;100591.19;;;3.68;51.16
50702;BME280;36670;50.094;8.496;2023-04-06T02:58:18;100588.59;;;3.59;51.44
50702;BME280;36670;50.094;8.496;2023-04-06T03:00:43;100592.66;;;4.05;50.30
50702;BME280;36670;50.094;8.496;2023-04-06T03:03:08;100590.75;;;3.71;50.44
50702;BME280;36670;50.094;8.496;2023-04-06T03:05:34;100597.84;;;3.30;52.37
50702;BME280;36670;50.094;8.496;2023-04-06T03:07:59;100590.44;;;3.52;51.95
50702;BME280;36670;50.094;8.496;2023-04-06T03:10:24;100595.09;;;3.58;51.43
50702;BME280;36670;50.094;8.496;2023-04-06T03:12:50;100597.78;;;3.23;52.70
50702;BME280;36670;50.094;8.496;2023-04-06T03:15:15;100592.50;;;3.79;51.11
50702;BME280;36670;50.094;8.496;2023-04-06T03:17:40;100596.44;;;3.41;52.45
50702;BME280;36670;50.094;8.496;2023-04-06T03:20:06;100594.00;;;3.88;51.45
50702;BME280;36670;50.094;8.496;2023-04-06T03:22:32;100600.50;;;4.22;50.25
50702;BME280;36670;50.094;8.496;2023-04-06T03:24:57;100595.81;;;3.74;51.55
50702;BME280;36670;50.094;8.496;2023-04-06T03:27:22;100582.59;;;4.13;51.13
50702;BME280;36670;50.094;8.496;2023-04-06T03:29:47;100593.44;;;3.99;51.24
50702;BME280;36670;50.094;8.496;2023-04-06T03:32:13;100594.81;;;4.17;50.23
50702;BME280;36670;50.094;8.496;2023-04-06T03:34:38;100600.50;;;3.87;51.50
50702;BME280;36670;50.094;8.496;2023-04-06T03:37:04;100601.97;;;3.83;51.33
50702;BME280;36670;50.094;8.496;2023-04-06T03:39:30;100600.59;;;3.65;52.06
50702;BME280;36670;50.094;8.496;2023-04-06T03:41:55;100603.13;;;3.67;51.03
50702;BME280;36670;50.094;8.496;2023-04-06T03:44:21;100596.84;;;3.66;51.01
50702;BME280;36670;50.094;8.496;2023-04-06T03:46:46;100604.06;;;3.24;51.97
50702;BME280;36670;50.094;8.496;2023-04-06T03:49:11;100602.81;;;3.27;52.23
50702;BME280;36670;50.094;8.496;2023-04-06T03:51:37;100598.25;;;3.05;53.53
50702;BME280;36670;50.094;8.496;2023-04-06T03:54:03;100603.16;;;3.17;53.01
50702;BME280;36670;50.094;8.496;2023-04-06T03:56:28;100601.16;;;3.54;52.19
50702;BME280;36670;50.094;8.496;2023-04-06T03:58:53;100603.03;;;3.82;51.61
50702;BME280;36670;50.094;8.496;2023-04-06T04:01:19;100601.91;;;3.41;52.50
50702;BME280;36670;50.094;8.496;2023-04-06T04:03:45;100599.81;;;3.43;51.78
50702;BME280;36670;50.094;8.496;2023-04-06T04:06:10;100601.25;;;4.02;51.24
50702;BME280;36670;50.094;8.496;2023-04-06T04:08:35;100611.72;;;3.99;50.67
50702;BME280;36670;50.094;8.496;2023-04-06T04:11:01;100614.47;;;3.99;51.33
50702;BME280;36670;50.094;8.496;2023-04-06T04:13:26;100610.84;;;4.33;50.83
50702;BME280;36670;50.094;8.496;2023-04-06T04:15:52;100600.13;;;4.38;50.36
50702;BME280;36670;50.094;8.496;2023-04-06T04:18:18;100607.31;;;4.46;50.12
50702;BME280;36670;50.094;8.496;2023-04-06T04:20:43;100617.03;;;4.62;50.08
50702;BME280;36670;50.094;8.496;2023-04-06T04:23:09;100621.31;;;3.88;51.22
50702;BME280;36670;50.094;8.496;2023-04-06T04:25:34;100620.28;;;3.54;51.73
50702;BME280;36670;50.094;8.496;2023-04-06T04:27:59;100623.69;;;3.13;52.47
50702;BME280;36670;50.094;8.496;2023-04-06T04:30:25;100620.78;;;3.14;52.32
50702;BME280;36670;50.094;8.496;2023-04-06T04:32:50;100616.81;;;3.17;52.99
50702;BME280;36670;50.094;8.496;2023-04-06T04:35:15;100620.91;;;3.28;52.64
50702;BME280;36670;50.094;8.496;2023-04-06T04:37:41;100621.66;;;3.21;52.39
50702;BME280;36670;50.094;8.496;2023-04-06T04:40:07;100614.88;;;3.11;53.55
50702;BME280;36670;50.094;8.496;2023-04-06T04:42:33;100620.53;;;2.87;54.01
50702;BME280;36670;50.094;8.496;2023-04-06T04:44:58;100625.66;;;2.97;53.69
50702;BME280;36670;50.094;8.496;2023-04-06T04:47:24;100618.91;;;3.43;52.41
50702;BME280;36670;50.094;8.496;2023-04-06T04:49:49;100623.28;;;3.16;52.82
50702;BME280;36670;50.094;8.496;2023-04-06T04:52:14;100631.91;;;2.91;53.65
50702;BME280;36670;50.094;8.496;2023-04-06T04:54:40;100634.22;;;3.16;53.71
50702;BME280;36670;50.094;8.496;2023-04-06T04:57:06;100635.38;;;3.28;52.68
50702;BME280;36670;50.094;8.496;2023-04-06T04:59:32;100631.66;;;3.36;53.09
50702;BME280;36670;50.094;8.496;2023-04-06T05:01:57;100638.03;;;3.21;53.21
50702;BME280;36670;50.094;8.496;2023-04-06T05:04:23;100635.06;;;2.95;53.68
50702;BME280;36670;50.094;8.496;2023-04-06T05:06:49;100644.09;;;3.38;53.06
50702;BME280;36670;50.094;8.496;2023-04-06T05:09:14;100640.41;;;3.53;53.51
50702;BME280;36670;50.094;8.496;2023-04-06T05:11:40;100636.44;;;3.27;53.63
50702;BME280;36670;50.094;8.496;2023-04-06T05:14:05;100634.69;;;3.48;52.66
50702;BME280;36670;50.094;8.496;2023-04-06T05:16:32;100635.66;;;3.90;52.77
50702;BME280;36670;50.094;8.496;2023-04-06T05:18:58;100637.81;;;4.01;51.92
50702;BME280;36670;50.094;8.496;2023-04-06T05:21:23;100636.22;;;3.85;52.59
50702;BME280;36670;50.094;8.496;2023-04-06T05:23:48;100635.66;;;4.38;50.85
50702;BME280;36670;50.094;8.496;2023-04-06T05:26:14;100633.59;;;4.40;51.51
50702;BME280;36670;50.094;8.496;2023-04-06T05:28:39;100640.56;;;4.56;51.30
50702;BME280;36670;50.094;8.496;2023-04-06T05:31:05;100645.28;;;3.86;52.47
50702;BME280;36670;50.094;8.496;2023-04-06T05:33:30;100643.72;;;4.53;50.97
50702;BME280;36670;50.094;8.496;2023-04-06T05:35:56;100637.84;;;4.50;50.85
50702;BME280;36670;50.094;8.496;2023-04-06T05:38:21;100639.09;;;3.77;51.72
50702;BME280;36670;50.094;8.496;2023-04-06T05:40:46;100647.06;;;3.72;52.17
50702;BME280;36670;50.094;8.496;2023-04-06T05:43:12;100642.63;;;4.41;51.43
50702;BME280;36670;50.094;8.496;2023-04-06T05:45:37;100644.22;;;4.22;52.03
50702;BME280;36670;50.094;8.496;2023-04-06T05:48:03;100651.00;;;4.26;52.11
50702;BME280;36670;50.094;8.496;2023-04-06T05:50:29;100643.03;;;5.00;51.41
50702;BME280;36670;50.094;8.496;2023-04-06T05:52:55;100641.81;;;6.03;50.32
50702;BME280;36670;50.094;8.496;2023-04-06T05:55:20;100645.06;;;6.38;49.75
50702;BME280;36670;50.094;8.496;2023-04-06T05:57:46;100636.25;;;6.75;48.39
50702;BME280;36670;50.094;8.496;2023-04-06T06:00:11;100637.25;;;7.19;48.26
50702;BME280;36670;50.094;8.496;2023-04-06T06:02:37;100645.09;;;7.15;47.20
50702;BME280;36670;50.094;8.496;2023-04-06T06:05:02;100639.66;;;7.84;46.93
50702;BME280;36670;50.094;8.496;2023-04-06T06:07:28;100647.16;;;9.19;45.27
50702;BME280;36670;50.094;8.496;2023-04-06T06:09:57;100639.91;;;10.43;43.90
50702;BME280;36670;50.094;8.496;2023-04-06T06:12:23;100634.13;;;10.85;42.36
50702;BME280;36670;50.094;8.496;2023-04-06T06:14:49;100631.47;;;10.90;41.21
50702;BME280;36670;50.094;8.496;2023-04-06T06:17:14;100644.63;;;10.43;40.65
50702;BME280;36670;50.094;8.496;2023-04-06T06:19:40;100639.09;;;10.43;39.16
50702;BME280;36670;50.094;8.496;2023-04-06T06:22:05;100640.25;;;10.58;40.61
50702;BME280;36670;50.094;8.496;2023-04-06T06:24:31;100640.84;;;11.35;39.14
50702;BME280;36670;50.094;8.496;2023-04-06T06:26:56;100638.53;;;11.95;37.92
50702;BME280;36670;50.094;8.496;2023-04-06T06:29:22;100636.97;;;11.02;38.72
50702;BME280;36670;50.094;8.496;2023-04-06T06:31:48;100642.94;;;11.28;38.50
50702;BME280;36670;50.094;8.496;2023-04-06T06:34:14;100634.59;;;11.57;38.97
50702;BME280;36670;50.094;8.496;2023-04-06T06:36:39;100632.25;;;11.66;37.68
50702;BME280;36670;50.094;8.496;2023-04-06T06:39:05;100638.47;;;11.10;37.67
50702;BME280;36670;50.094;8.496;2023-04-06T06:41:30;100634.28;;;11.07;38.54
50702;BME280;36670;50.094;8.496;2023-04-06T06:43:55;100635.25;;;10.84;39.16
50702;BME280;36670;50.094;8.496;2023-04-06T06:46:21;100638.94;;;11.36;38.15
50702;BME280;36670;50.094;8.496;2023-04-06T06:48:46;100632.75;;;12.36;37.18
50702;BME280;36670;50.094;8.496;2023-04-06T06:51:11;100640.56;;;12.39;36.44
50702;BME280;36670;50.094;8.496;2023-04-06T06:53:37;100640.47;;;11.94;36.45
50702;BME280;36670;50.094;8.496;2023-04-06T06:56:02;100644.00;;;10.52;38.36
50702;BME280;36670;50.094;8.496;2023-04-06T06:58:28;100650.34;;;9.58;39.96
50702;BME280;36670;50.094;8.496;2023-04-06T07:00:57;100646.97;;;8.71;41.29
50702;BME280;36670;50.094;8.496;2023-04-06T07:03:23;100642.16;;;8.97;40.82
50702;BME280;36670;50.094;8.496;2023-04-06T07:05:49;100645.34;;;8.82;41.58
50702;BME280;36670;50.094;8.496;2023-04-06T07:08:21;100647.09;;;8.02;43.31
50702;BME280;36670;50.094;8.496;2023-04-06T07:10:47;100645.00;;;7.54;44.04
50702;BME280;36670;50.094;8.496;2023-04-06T07:13:13;100651.59;;;8.15;44.04
50702;BME280;36670;50.094;8.496;2023-04-06T07:15:43;100640.28;;;8.79;43.69
50702;BME280;36670;50.094;8.496;2023-04-06T07:18:08;100629.34;;;9.33;41.94
50702;BME280;36670;50.094;8.496;2023-04-06T07:20:34;100636.44;;;9.41;42.55
50702;BME280;36670;50.094;8.496;2023-04-06T07:22:59;100642.63;;;8.64;43.80
50702;BME280;36670;50.094;8.496;2023-04-06T07:25:25;100637.06;;;9.55;42.98
50702;BME280;36670;50.094;8.496;2023-04-06T07:27:50;100644.13;;;9.86;42.44
50702;BME280;36670;50.094;8.496;2023-04-06T07:30:15;100644.94;;;10.58;40.86
50702;BME280;36670;50.094;8.496;2023-04-06T07:32:40;100640.28;;;10.47;41.47
50702;BME280;36670;50.094;8.496;2023-04-06T07:35:06;100634.06;;;10.80;40.39
50702;BME280;36670;50.094;8.496;2023-04-06T07:37:31;100642.88;;;10.94;39.69
50702;BME280;36670;50.094;8.496;2023-04-06T07:39:57;100638.56;;;11.15;40.07
50702;BME280;36670;50.094;8.496;2023-04-06T07:42:22;100636.53;;;10.53;40.48
50702;BME280;36670;50.094;8.496;2023-04-06T07:44:48;100644.38;;;10.44;40.18
50702;BME280;36670;50.094;8.496;2023-04-06T07:47:13;100646.28;;;10.44;40.22
50702;BME280;36670;50.094;8.496;2023-04-06T07:49:38;100643.88;;;10.35;40.02
50702;BME280;36670;50.094;8.496;2023-04-06T07:52:04;100656.94;;;10.28;40.46
50702;BME280;36670;50.094;8.496;2023-04-06T07:54:29;100651.16;;;10.53;39.79
50702;BME280;36670;50.094;8.496;2023-04-06T07:56:54;100653.66;;;10.67;40.22
50702;BME280;36670;50.094;8.496;2023-04-06T07:59:20;100650.06;;;10.66;40.07
50702;BME280;36670;50.094;8.496;2023-04-06T08:01:45;100645.34;;;10.79;39.83
50702;BME280;36670;50.094;8.496;2023-04-06T08:04:10;100642.84;;;11.23;39.18
50702;BME280;36670;50.094;8.496;2023-04-06T08:06:36;100635.94;;;11.37;39.25
50702;BME280;36670;50.094;8.496;2023-04-06T08:09:09;100644.44;;;11.19;39.00
50702;BME280;36670;50.094;8.496;2023-04-06T08:11:35;100652.09;;;10.71;40.13
50702;BME280;36670;50.094;8.496;2023-04-06T08:14:01;100639.03;;;11.41;39.00
50702;BME280;36670;50.094;8.496;2023-04-06T08:16:26;100642.91;;;11.40;38.71
50702;BME280;36670;50.094;8.496;2023-04-06T08:18:51;100633.06;;;11.66;38.48
50702;BME280;36670;50.094;8.496;2023-04-06T08:21:17;100633.00;;;11.44;39.04
50702;BME280;36670;50.094;8.496;2023-04-06T08:23:43;100635.28;;;11.64;38.80
50702;BME280;36670;50.094;8.496;2023-04-06T08:26:08;100638.44;;;11.56;38.50
50702;BME280;36670;50.094;8.496;2023-04-06T08:28:34;100637.13;;;11.58;38.11
50702;BME280;36670;50.094;8.496;2023-04-06T08:31:04;100643.56;;;11.30;38.47
50702;BME280;36670;50.094;8.496;2023-04-06T08:33:30;100642.03;;;10.93;38.74
50702;BME280;36670;50.094;8.496;2023-04-06T08:35:56;100639.91;;;11.13;39.15
50702;BME280;36670;50.094;8.496;2023-04-06T08:38:21;100637.78;;;11.49;38.58
50702;BME280;36670;50.094;8.496;2023-04-06T08:40:46;100629.88;;;11.74;38.68
50702;BME280;36670;50.094;8.496;2023-04-06T08:43:14;100634.13;;;12.16;37.65
50702;BME280;36670;50.094;8.496;2023-04-06T08:45:40;100629.22;;;12.40;37.32
50702;BME280;36670;50.094;8.496;2023-04-06T08:48:06;100622.69;;;12.29;38.16
50702;BME280;36670;50.094;8.496;2023-04-06T08:50:33;100630.31;;;12.39;37.26
50702;BME280;36670;50.094;8.496;2023-04-06T08:52:59;100627.03;;;12.64;36.35
50702;BME280;36670;50.094;8.496;2023-04-06T08:55:25;100632.31;;;12.05;37.57
50702;BME280;36670;50.094;8.496;2023-04-06T08:57:50;100626.91;;;12.76;37.61
50702;BME280;36670;50.094;8.496;2023-04-06T09:00:20;100627.63;;;12.44;37.26
50702;BME280;36670;50.094;8.496;2023-04-06T09:02:47;100639.00;;;12.48;37.25
50702;BME280;36670;50.094;8.496;2023-04-06T09:05:14;100621.47;;;12.87;36.87
50702;BME280;36670;50.094;8.496;2023-04-06T09:07:40;100627.44;;;13.01;36.87
50702;BME280;36670;50.094;8.496;2023-04-06T09:10:06;100628.50;;;13.00;37.64
50702;BME280;36670;50.094;8.496;2023-04-06T09:12:32;100623.94;;;13.38;36.92
50702;BME280;36670;50.094;8.496;2023-04-06T09:14:59;100627.16;;;13.29;36.58
50702;BME280;36670;50.094;8.496;2023-04-06T09:17:26;100619.69;;;13.62;36.77
50702;BME280;36670;50.094;8.496;2023-04-06T09:19:52;100619.69;;;14.00;36.30
50702;BME280;36670;50.094;8.496;2023-04-06T09:22:18;100623.59;;;14.04;36.19
50702;BME280;36670;50.094;8.496;2023-04-06T09:24:48;100618.31;;;14.03;35.24
50702;BME280;36670;50.094;8.496;2023-04-06T09:27:14;100616.03;;;13.94;35.09
50702;BME280;36670;50.094;8.496;2023-04-06T09:29:41;100618.56;;;13.96;36.03
50702;BME280;36670;50.094;8.496;2023-04-06T09:32:08;100615.03;;;14.11;35.54
50702;BME280;36670;50.094;8.496;2023-04-06T09:34:36;100606.50;;;14.23;35.42
50702;BME280;36670;50.094;8.496;2023-04-06T09:37:15;100603.34;;;14.04;34.91
50702;BME280;36670;50.094;8.496;2023-04-06T09:39:40;100604.78;;;14.16;35.48
50702;BME280;36670;50.094;8.496;2023-04-06T09:42:06;100605.56;;;14.02;34.84
50702;BME280;36670;50.094;8.496;2023-04-06T09:44:31;100602.47;;;14.51;34.65
50702;BME280;36670;50.094;8.496;2023-04-06T09:46:57;100599.50;;;14.68;34.65
50702;BME280;36670;50.094;8.496;2023-04-06T09:49:23;100599.16;;;14.59;34.11
50702;BME280;36670;50.094;8.496;2023-04-06T09:51:54;100599.78;;;14.66;34.31
50702;BME280;36670;50.094;8.496;2023-04-06T09:54:21;100600.66;;;14.77;34.89
50702;BME280;36670;50.094;8.496;2023-04-06T09:56:51;100591.00;;;15.26;33.86
50702;BME280;36670;50.094;8.496;2023-04-06T10:02:15;100584.03;;;15.39;33.95
50702;BME280;36670;50.094;8.496;2023-04-06T10:04:50;100583.50;;;15.22;34.16
50702;BME280;36670;50.094;8.496;2023-04-06T10:07:18;100587.09;;;15.22;34.20
50702;BME280;36670;50.094;8.496;2023-04-06T10:09:45;100584.03;;;15.03;33.70
50702;BME280;36670;50.094;8.496;2023-04-06T10:12:12;100584.03;;;15.08;33.61
50702;BME280;36670;50.094;8.496;2023-04-06T10:14:39;100584.59;;;15.21;33.89
50702;BME280;36670;50.094;8.496;2023-04-06T10:17:06;100582.91;;;15.19;33.77
50702;BME280;36670;50.094;8.496;2023-04-06T10:19:55;100572.94;;;15.49;33.73
50702;BME280;36670;50.094;8.496;2023-04-06T10:22:38;100575.94;;;15.74;33.62
50702;BME280;36670;50.094;8.496;2023-04-06T10:25:08;100575.13;;;15.83;33.98
50702;BME280;36670;50.094;8.496;2023-04-06T10:27:33;100575.94;;;15.99;33.64
50702;BME280;36670;50.094;8.496;2023-04-06T10:30:06;100562.03;;;15.99;33.33
50702;BME280;36670;50.094;8.496;2023-04-06T10:32:36;100570.94;;;15.91;32.97
50702;BME280;36670;50.094;8.496;2023-04-06T10:35:11;100561.97;;;16.04;33.39
50702;BME280;36670;50.094;8.496;2023-04-06T10:38:07;100561.97;;;16.15;33.37
50702;BME280;36670;50.094;8.496;2023-04-06T10:40:36;100556.94;;;16.17;32.96
50702;BME280;36670;50.094;8.496;2023-04-06T10:43:10;100554.81;;;15.88;33.34
50702;BME280;36670;50.094;8.496;2023-04-06T10:45:35;100557.00;;;15.96;33.01
50702;BME280;36670;50.094;8.496;2023-04-06T10:48:12;100554.41;;;16.26;32.83
50702;BME280;36670;50.094;8.496;2023-04-06T10:50:38;100552.69;;;16.35;33.26
50702;BME280;36670;50.094;8.496;2023-04-06T10:53:05;100540.47;;;16.81;32.86
50702;BME280;36670;50.094;8.496;2023-04-06T10:55:31;100536.91;;;16.70;32.43
50702;BME280;36670;50.094;8.496;2023-04-06T10:57:56;100542.91;;;16.43;31.49
50702;BME280;36670;50.094;8.496;2023-04-06T11:00:22;100538.34;;;16.67;32.23
50702;BME280;36670;50.094;8.496;2023-04-06T11:02:48;100548.66;;;16.62;31.71
50702;BME280;36670;50.094;8.496;2023-04-06T11:05:14;100544.59;;;16.44;31.97
50702;BME280;36670;50.094;8.496;2023-04-06T11:07:40;100542.53;;;16.60;32.08
50702;BME280;36670;50.094;8.496;2023-04-06T11:10:07;100535.47;;;16.78;32.56
50702;BME280;36670;50.094;8.496;2023-04-06T11:12:33;100540.28;;;16.62;31.72
50702;BME280;36670;50.094;8.496;2023-04-06T11:15:01;100523.81;;;16.70;32.31
50702;BME280;36670;50.094;8.496;2023-04-06T11:17:31;100527.19;;;17.07;31.87
50702;BME280;36670;50.094;8.496;2023-04-06T11:19:59;100532.59;;;16.93;32.16
50702;BME280;36670;50.094;8.496;2023-04-06T11:22:25;100520.34;;;16.89;31.52
50702;BME280;36670;50.094;8.496;2023-04-06T11:25:05;100511.88;;;17.04;32.58
50702;BME280;36670;50.094;8.496;2023-04-06T11:27:31;100513.78;;;16.69;32.50
50702;BME280;36670;50.094;8.496;2023-04-06T11:29:58;100515.38;;;16.76;32.62
50702;BME280;36670;50.094;8.496;2023-04-06T11:32:24;100510.78;;;16.61;32.08
50702;BME280;36670;50.094;8.496;2023-04-06T11:34:49;100510.66;;;16.76;33.29
50702;BME280;36670;50.094;8.496;2023-04-06T11:37:15;100497.44;;;16.97;32.18
50702;BME280;36670;50.094;8.496;2023-04-06T11:39:46;100497.59;;;16.71;31.64
50702;BME280;36670;50.094;8.496;2023-04-06T11:42:12;100496.91;;;16.95;32.17
50702;BME280;36670;50.094;8.496;2023-04-06T11:44:39;100495.78;;;17.26;31.63
50702;BME280;36670;50.094;8.496;2023-04-06T11:47:07;100493.94;;;17.45;31.46
50702;BME280;36670;50.094;8.496;2023-04-06T11:49:36;100488.44;;;17.64;31.94
50702;BME280;36670;50.094;8.496;2023-04-06T11:52:02;100489.84;;;17.62;31.10
50702;BME280;36670;50.094;8.496;2023-04-06T11:54:35;100489.16;;;17.75;31.29
50702;BME280;36670;50.094;8.496;2023-04-06T11:57:03;100478.16;;;17.84;31.19
50702;BME280;36670;50.094;8.496;2023-04-06T11:59:28;100480.91;;;17.65;30.86
50702;BME280;36670;50.094;8.496;2023-04-06T12:01:53;100484.69;;;17.74;30.66
50702;BME280;36670;50.094;8.496;2023-04-06T12:04:19;100478.25;;;17.79;30.80
50702;BME280;36670;50.094;8.496;2023-04-06T12:06:45;100482.03;;;17.64;31.16
50702;BME280;36670;50.094;8.496;2023-04-06T12:09:10;100475.69;;;17.82;30.86
50702;BME280;36670;50.094;8.496;2023-04-06T12:11:36;100465.94;;;17.80;30.60
50702;BME280;36670;50.094;8.496;2023-04-06T12:14:01;100464.94;;;17.70;30.78
50702;BME280;36670;50.094;8.496;2023-04-06T12:16:30;100462.97;;;18.19;30.47
50702;BME280;36670;50.094;8.496;2023-04-06T12:18:55;100454.63;;;18.14;30.09
50702;BME280;36670;50.094;8.496;2023-04-06T12:21:21;100466.56;;;18.20;29.16
50702;BME280;36670;50.094;8.496;2023-04-06T12:23:46;100475.47;;;18.03;28.90
50702;BME280;36670;50.094;8.496;2023-04-06T12:26:11;100469.72;;;18.13;28.54
50702;BME280;36670;50.094;8.496;2023-04-06T12:28:37;100452.03;;;17.74;28.56
50702;BME280;36670;50.094;8.496;2023-04-06T12:31:02;100457.75;;;17.88;29.07
50702;BME280;36670;50.094;8.496;2023-04-06T12:33:27;100457.34;;;18.00;27.80
50702;BME280;36670;50.094;8.496;2023-04-06T12:35:53;100450.38;;;17.98;27.70
50702;BME280;36670;50.094;8.496;2023-04-06T12:38:18;100451.59;;;18.11;28.89
50702;BME280;36670;50.094;8.496;2023-04-06T12:40:43;100450.38;;;17.98;28.45
50702;BME280;36670;50.094;8.496;2023-04-06T12:43:09;100453.91;;;18.28;28.77
50702;BME280;36670;50.094;8.496;2023-04-06T12:45:34;100441.06;;;18.46;28.86
50702;BME280;36670;50.094;8.496;2023-04-06T12:47:59;100444.44;;;18.04;28.31
50702;BME280;36670;50.094;8.496;2023-04-06T12:50:25;100445.34;;;18.19;28.74
50702;BME280;36670;50.094;8.496;2023-04-06T12:52:51;100427.69;;;18.62;28.61